createdAt,value
2023-04-22T00:01:19.015Z,9.9
2023-04-22T00:05:20.396Z,9.8
2023-04-22T00:09:18.981Z,9.8
2023-04-22T00:13:20.875Z,9.7
2023-04-22T00:15:18.489Z,9.6
2023-04-22T00:19:19.003Z,9.5
2023-04-22T00:21:20.864Z,9.6
2023-04-22T00:23:30.282Z,9.6
2023-04-22T00:25:19.179Z,9.6
2023-04-22T00:29:18.427Z,9.6
2023-04-22T00:31:31.434Z,9.5
2023-04-22T00:33:18.428Z,9.6
2023-04-22T00:35:28.053Z,9.5
2023-04-22T00:37:18.893Z,9.6
2023-04-22T00:39:18.454Z,9.6
2023-04-22T00:41:18.441Z,9.6
2023-04-22T00:43:31.001Z,9.5
2023-04-22T00:45:18.413Z,9.5
2023-04-22T00:47:25.665Z,9.5
2023-04-22T00:49:18.912Z,9.4
2023-04-22T00:51:25.248Z,9.2
2023-04-22T00:53:19.150Z,9.2
2023-04-22T00:55:18.996Z,9.4
2023-04-22T00:57:18.455Z,9.3
2023-04-22T00:59:18.423Z,9.3
2023-04-22T01:01:31.077Z,9.3
2023-04-22T01:03:18.919Z,9.2
2023-04-22T01:05:23.018Z,9.2
2023-04-22T01:07:18.920Z,9.3
2023-04-22T01:09:18.437Z,9.2
2023-04-22T01:11:24.398Z,9.2
2023-04-22T01:13:19.308Z,9.1
2023-04-22T01:15:18.436Z,9
2023-04-22T01:17:18.428Z,9
2023-04-22T01:21:18.422Z,9.1
2023-04-22T01:23:30.478Z,9.1
2023-04-22T01:25:18.907Z,9
2023-04-22T01:27:18.428Z,8.9
2023-04-22T01:29:18.458Z,9
2023-04-22T01:31:31.553Z,9.1
2023-04-22T01:33:18.444Z,9.1
2023-04-22T01:35:29.893Z,9.1
2023-04-22T01:37:18.984Z,9.1
2023-04-22T01:39:18.462Z,9
2023-04-22T01:41:24.473Z,8.9
2023-04-22T01:43:19.288Z,8.9
2023-04-22T01:45:18.451Z,8.7
2023-04-22T01:47:18.446Z,8.7
2023-04-22T01:49:19.036Z,8.6
2023-04-22T01:51:18.458Z,8.5
2023-04-22T01:53:18.453Z,8.5
2023-04-22T01:55:19.089Z,8.5
2023-04-22T01:57:18.533Z,8.5
2023-04-22T01:59:18.517Z,8.6
2023-04-22T02:01:19.103Z,8.7
2023-04-22T02:03:18.577Z,8.7
2023-04-22T02:05:18.514Z,8.6
2023-04-22T02:07:19.457Z,8.6
2023-04-22T02:09:18.441Z,8.5
2023-04-22T02:11:18.451Z,8.5
2023-04-22T02:13:31.195Z,8.5
2023-04-22T02:15:19.203Z,8.4
2023-04-22T02:17:18.448Z,8.4
2023-04-22T02:19:19.068Z,8.4
2023-04-22T02:21:18.503Z,8.3
2023-04-22T02:23:19.140Z,8.4
2023-04-22T02:25:18.979Z,8.2
2023-04-22T02:27:19.000Z,8.2
2023-04-22T02:29:25.494Z,8.1
2023-04-22T02:31:18.976Z,8.1
2023-04-22T02:33:18.903Z,8.1
2023-04-22T02:35:22.680Z,8.1
2023-04-22T02:37:19.690Z,8.1
2023-04-22T02:39:18.429Z,8.1
2023-04-22T02:41:18.436Z,8.2
2023-04-22T02:43:31.479Z,8.2
2023-04-22T02:45:18.438Z,8.1
2023-04-22T02:47:18.438Z,8.1
2023-04-22T02:49:31.443Z,8.1
2023-04-22T02:51:18.461Z,8.1
2023-04-22T02:53:18.791Z,8.1
2023-04-22T02:57:18.471Z,8.1
2023-04-22T02:59:24.040Z,8.1
2023-04-22T03:01:18.965Z,7.9
2023-04-22T03:03:18.944Z,7.8
2023-04-22T03:05:28.349Z,7.8
2023-04-22T03:07:18.913Z,7.9
2023-04-22T03:09:18.640Z,8
2023-04-22T03:11:24.429Z,8
2023-04-22T03:13:19.391Z,8
2023-04-22T03:15:21.186Z,8
2023-04-22T03:17:18.457Z,7.9
2023-04-22T03:19:31.424Z,7.9
2023-04-22T03:21:18.463Z,7.9
2023-04-22T03:23:18.441Z,7.9
2023-04-22T03:25:18.909Z,7.9
2023-04-22T03:27:22.040Z,7.8
2023-04-22T03:29:18.446Z,7.8
2023-04-22T03:31:19.045Z,7.8
2023-04-22T03:33:19.271Z,7.9
2023-04-22T03:35:18.436Z,7.9
2023-04-22T03:37:31.088Z,7.9
2023-04-22T03:39:19.149Z,7.9
2023-04-22T03:41:25.798Z,7.8
2023-04-22T03:43:18.927Z,7.8
2023-04-22T03:45:18.457Z,7.7
2023-04-22T03:47:27.578Z,7.7
2023-04-22T03:49:18.965Z,7.7
2023-04-22T03:51:26.709Z,7.7
2023-04-22T03:53:18.808Z,7.8
2023-04-22T03:55:19.165Z,7.8
2023-04-22T03:57:18.865Z,7.8
2023-04-22T03:59:19.274Z,7.8
2023-04-22T04:01:18.985Z,7.7
2023-04-22T04:03:31.112Z,7.7
2023-04-22T04:05:18.542Z,7.7
2023-04-22T04:07:18.945Z,7.8
2023-04-22T04:09:23.038Z,7.8
2023-04-22T04:11:18.470Z,7.8
2023-04-22T04:13:19.319Z,7.9
2023-04-22T04:15:18.458Z,7.9
2023-04-22T04:17:25.996Z,7.8
2023-04-22T04:19:18.935Z,7.8
2023-04-22T04:21:18.903Z,7.8
2023-04-22T04:23:18.832Z,7.8
2023-04-22T04:25:32.426Z,7.9
2023-04-22T04:27:18.919Z,8
2023-04-22T04:29:24.931Z,8.2
2023-04-22T04:31:19.022Z,8.2
2023-04-22T04:33:26.077Z,8.4
2023-04-22T04:37:18.920Z,8.4
2023-04-22T04:39:18.811Z,8.4
2023-04-22T04:41:21.356Z,8.5
2023-04-22T04:43:21.652Z,8.5
2023-04-22T04:45:18.444Z,8.7
2023-04-22T04:47:18.433Z,8.7
2023-04-22T04:49:32.053Z,8.7
2023-04-22T04:51:20.337Z,8.8
2023-04-22T04:53:22.384Z,8.8
2023-04-22T04:55:18.954Z,8.9
2023-04-22T04:57:18.441Z,9
2023-04-22T04:59:23.067Z,9
2023-04-22T05:01:18.987Z,9
2023-04-22T05:03:25.583Z,9
2023-04-22T05:05:18.459Z,9.1
2023-04-22T05:07:18.978Z,9.1
2023-04-22T05:09:18.461Z,9.2
2023-04-22T05:11:30.150Z,9.2
2023-04-22T05:13:18.952Z,9.3
2023-04-22T05:17:19.233Z,9.6
2023-04-22T05:19:31.345Z,9.7
2023-04-22T05:21:18.461Z,9.7
2023-04-22T05:23:19.203Z,9.7
2023-04-22T05:25:31.395Z,9.8
2023-04-22T05:27:18.466Z,9.7
2023-04-22T05:29:25.752Z,9.8
2023-04-22T05:31:19.013Z,9.8
2023-04-22T05:33:18.479Z,9.8
2023-04-22T05:35:20.637Z,10
2023-04-22T05:37:18.954Z,10.1
2023-04-22T05:39:18.821Z,10
2023-04-22T05:41:18.499Z,10.2
2023-04-22T05:45:18.931Z,10.3
2023-04-22T05:47:18.477Z,10.4
2023-04-22T05:49:29.706Z,10.5
2023-04-22T05:51:18.453Z,10.5
2023-04-22T05:53:23.276Z,10.7
2023-04-22T05:55:20.932Z,10.6
2023-04-22T05:57:18.459Z,10.8
2023-04-22T05:59:25.079Z,11
2023-04-22T06:01:18.919Z,12.6
2023-04-22T06:05:18.550Z,12.8
2023-04-22T06:07:18.947Z,12.9
2023-04-22T06:09:18.822Z,13
2023-04-22T06:11:18.484Z,13.1
2023-04-22T06:13:31.383Z,13.1
2023-04-22T06:15:18.510Z,13.1
2023-04-22T06:17:18.517Z,13.1
2023-04-22T06:19:19.907Z,13
2023-04-22T06:21:19.221Z,12.9
2023-04-22T06:23:21.325Z,13
2023-04-22T06:25:18.926Z,13.3
2023-04-22T06:27:18.473Z,13.4
2023-04-22T06:29:23.620Z,13.2
2023-04-22T06:31:20.502Z,13.3
2023-04-22T06:33:18.472Z,13.4
2023-04-22T06:35:24.016Z,13.5
2023-04-22T06:37:19.330Z,13.6
2023-04-22T06:39:18.456Z,13.6
2023-04-22T06:43:19.713Z,13.6
2023-04-22T06:45:18.457Z,13.7
2023-04-22T06:47:19.196Z,13.6
2023-04-22T06:53:24.652Z,13.8
2023-04-22T06:55:18.945Z,13.9
2023-04-22T06:57:24.225Z,14
2023-04-22T06:59:18.494Z,14
2023-04-22T07:03:18.503Z,14.3
2023-04-22T07:05:27.803Z,14.2
2023-04-22T07:09:18.456Z,14.1
2023-04-22T07:11:18.495Z,14.1
2023-04-22T07:13:31.631Z,14.1
2023-04-22T07:15:18.460Z,14.3
2023-04-22T07:17:30.844Z,14.3
2023-04-22T07:19:18.928Z,14.3
2023-04-22T07:21:18.452Z,14.4
2023-04-22T07:23:27.017Z,14.4
2023-04-22T07:25:18.991Z,14.5
2023-04-22T07:27:18.472Z,14.6
2023-04-22T07:29:19.163Z,14.6
2023-04-22T07:31:19.061Z,14.6
2023-04-22T07:33:26.999Z,14.7
2023-04-22T07:35:19.226Z,14.8
2023-04-22T07:37:23.952Z,14.9
2023-04-22T07:39:18.461Z,14.9
2023-04-22T07:41:18.448Z,15
2023-04-22T07:45:18.451Z,15.1
2023-04-22T07:47:24.298Z,15.1
2023-04-22T07:51:18.476Z,15.5
2023-04-22T07:53:18.462Z,15.5
2023-04-22T07:57:18.930Z,15.6
2023-04-22T07:59:19.181Z,15.5
2023-04-22T08:01:21.051Z,15.5
2023-04-22T08:03:18.551Z,15.5
2023-04-22T08:05:18.506Z,15.5
2023-04-22T08:07:32.405Z,15.3
2023-04-22T08:09:27.380Z,15.3
2023-04-22T08:11:18.480Z,15.4
2023-04-22T08:15:18.490Z,15.5
2023-04-22T08:17:30.275Z,15.5
2023-04-22T08:19:19.319Z,15.5
2023-04-22T08:21:18.514Z,15.6
2023-04-22T08:23:23.727Z,15.8
2023-04-22T08:25:18.963Z,15.8
2023-04-22T08:27:18.517Z,15.9
2023-04-22T08:29:18.530Z,16
2023-04-22T08:33:18.532Z,16.3
2023-04-22T08:35:18.583Z,16.2
2023-04-22T08:37:19.057Z,16.1
2023-04-22T08:39:18.618Z,16.3
2023-04-22T08:41:18.470Z,16.4
2023-04-22T08:43:18.999Z,16.3
2023-04-22T08:45:19.248Z,16.3
2023-04-22T08:47:18.906Z,16.5
2023-04-22T08:49:19.046Z,16.6
2023-04-22T08:53:18.574Z,16.8
2023-04-22T08:55:19.101Z,16.8
2023-04-22T08:57:18.571Z,16.8
2023-04-22T08:59:19.291Z,16.8
2023-04-22T09:01:19.348Z,16.7
2023-04-22T09:03:18.532Z,16.8
2023-04-22T09:05:18.560Z,17
2023-04-22T09:07:19.074Z,17.1
2023-04-22T09:11:18.563Z,16.9
2023-04-22T09:13:19.005Z,16.8
2023-04-22T09:15:19.279Z,16.9
2023-04-22T09:17:18.859Z,17
2023-04-22T09:19:19.037Z,17
2023-04-22T09:21:19.034Z,17.1
2023-04-22T09:23:18.587Z,17.1
2023-04-22T09:25:19.072Z,17.1
2023-04-22T09:27:18.556Z,17.1
2023-04-22T09:29:18.534Z,17.2
2023-04-22T09:33:18.521Z,17.2
2023-04-22T09:35:18.491Z,17.2
2023-04-22T09:37:19.335Z,17.3
2023-04-22T09:39:18.503Z,17.3
2023-04-22T09:41:18.542Z,17.4
2023-04-22T09:43:19.087Z,17.4
2023-04-22T09:45:18.500Z,17.5
2023-04-22T09:47:24.249Z,17.4
2023-04-22T09:49:19.374Z,17.4
2023-04-22T09:51:18.495Z,17.5
2023-04-22T09:53:18.528Z,17.6
2023-04-22T09:55:18.991Z,17.5
2023-04-22T09:57:18.661Z,17.6
2023-04-22T09:59:19.064Z,17.6
2023-04-22T10:01:19.101Z,17.6
2023-04-22T10:03:18.721Z,17.6
2023-04-22T10:05:18.591Z,17.6
2023-04-22T10:09:18.472Z,17.4
2023-04-22T10:11:18.539Z,17.5
2023-04-22T10:13:18.961Z,17.6
2023-04-22T10:15:18.592Z,17.6
2023-04-22T10:17:18.853Z,17.7
2023-04-22T10:19:31.047Z,17.8
2023-04-22T10:21:19.250Z,17.8
2023-04-22T10:23:22.380Z,17.8
2023-04-22T10:25:19.376Z,17.8
2023-04-22T10:27:18.516Z,17.8
2023-04-22T10:29:18.493Z,17.8
2023-04-22T10:31:19.066Z,17.9
2023-04-22T10:35:18.470Z,17.9
2023-04-22T10:37:19.009Z,17.9
2023-04-22T10:39:18.856Z,17.9
2023-04-22T10:41:18.573Z,18
2023-04-22T10:43:19.083Z,18
2023-04-22T10:45:19.301Z,18
2023-04-22T10:47:18.585Z,18
2023-04-22T10:49:19.381Z,17.9
2023-04-22T10:51:18.506Z,18
2023-04-22T10:53:18.493Z,18
2023-04-22T10:57:18.543Z,18.1
2023-04-22T10:59:19.234Z,18.2
2023-04-22T11:03:18.691Z,18.3
2023-04-22T11:05:18.552Z,18.4
2023-04-22T11:07:19.011Z,18.4
2023-04-22T11:09:18.575Z,18.4
2023-04-22T11:11:18.606Z,18.4
2023-04-22T11:13:19.033Z,18.4
2023-04-22T11:15:26.997Z,18.3
2023-04-22T11:17:19.243Z,18.3
2023-04-22T11:19:31.552Z,18.3
2023-04-22T11:21:18.764Z,18.3
2023-04-22T11:23:25.981Z,18.3
2023-04-22T11:25:19.060Z,18.4
2023-04-22T11:27:18.502Z,18.4
2023-04-22T11:29:28.078Z,18.4
2023-04-22T11:31:19.024Z,18.4
2023-04-22T11:33:18.517Z,18.4
2023-04-22T11:35:23.174Z,18.4
2023-04-22T11:37:19.740Z,18.4
2023-04-22T11:39:18.974Z,18.4
2023-04-22T11:41:18.626Z,18.4
2023-04-22T11:43:19.047Z,18.4
2023-04-22T11:45:24.067Z,18.5
2023-04-22T11:47:18.524Z,18.4
2023-04-22T11:49:18.989Z,18.4
2023-04-22T11:51:18.491Z,18.4
2023-04-22T11:53:18.542Z,18.4
2023-04-22T11:55:19.036Z,18.4
2023-04-22T11:57:18.935Z,18.4
2023-04-22T11:59:18.992Z,18.4
2023-04-22T12:01:19.055Z,18.5
2023-04-22T12:03:18.733Z,18.5
2023-04-22T12:07:18.994Z,18.4
2023-04-22T12:09:24.661Z,18.4
2023-04-22T12:11:18.547Z,18.4
2023-04-22T12:13:18.981Z,18.5
2023-04-22T12:15:18.927Z,18.5
2023-04-22T12:17:18.503Z,18.5
2023-04-22T12:19:19.741Z,18.7
2023-04-22T12:21:18.516Z,18.9
2023-04-22T12:23:19.206Z,18.8
2023-04-22T12:25:31.454Z,18.7
2023-04-22T12:27:18.852Z,18.7
2023-04-22T12:29:24.697Z,18.6
2023-04-22T12:31:19.497Z,18.7
2023-04-22T12:35:23.390Z,18.7
2023-04-22T12:37:19.034Z,18.7
2023-04-22T12:39:18.886Z,18.8
2023-04-22T12:41:23.849Z,18.9
2023-04-22T12:45:19.236Z,19.1
2023-04-22T12:47:18.630Z,19.1
2023-04-22T12:49:19.010Z,19.1
2023-04-22T12:51:23.825Z,19.2
2023-04-22T12:53:18.541Z,19.2
2023-04-22T12:55:18.989Z,19.3
2023-04-22T12:57:18.548Z,19.4
2023-04-22T12:59:28.169Z,19.5
2023-04-22T13:01:19.001Z,19.4
2023-04-22T13:03:18.702Z,19.4
2023-04-22T13:05:18.516Z,19.4
2023-04-22T13:07:19.427Z,19.4
2023-04-22T13:09:18.542Z,19.4
2023-04-22T13:13:31.663Z,19.4
2023-04-22T13:15:18.491Z,19.3
2023-04-22T13:17:27.380Z,19.5
2023-04-22T13:19:19.451Z,19.4
2023-04-22T13:21:18.514Z,19.3
2023-04-22T13:23:18.506Z,19.4
2023-04-22T13:25:18.965Z,19.3
2023-04-22T13:27:26.768Z,19.3
2023-04-22T13:29:18.503Z,19.3
2023-04-22T13:33:18.514Z,19.4
2023-04-22T13:35:18.671Z,19.5
2023-04-22T13:37:31.705Z,19.5
2023-04-22T13:39:18.497Z,19.5
2023-04-22T13:41:26.001Z,19.5
2023-04-22T13:43:19.418Z,19.5
2023-04-22T13:45:18.540Z,19.5
2023-04-22T13:47:25.682Z,19.4
2023-04-22T13:49:19.303Z,19.5
2023-04-22T13:51:21.285Z,19.5
2023-04-22T13:53:18.628Z,19.5
2023-04-22T13:57:18.699Z,19.6
2023-04-22T13:59:18.627Z,19.5
2023-04-22T14:01:19.131Z,19.5
2023-04-22T14:03:27.676Z,19.6
2023-04-22T14:05:18.637Z,19.6
2023-04-22T14:07:19.102Z,19.6
2023-04-22T14:09:27.937Z,19.6
2023-04-22T14:11:18.995Z,19.6
2023-04-22T14:13:19.165Z,19.6
2023-04-22T14:15:31.335Z,19.6
2023-04-22T14:17:18.649Z,19.5
2023-04-22T14:21:18.670Z,19.6
2023-04-22T14:23:18.689Z,19.6
2023-04-22T14:25:31.830Z,19.6
2023-04-22T14:27:18.686Z,19.6
2023-04-22T14:29:29.204Z,19.6
2023-04-22T14:31:19.204Z,19.6
2023-04-22T14:33:18.680Z,19.6
2023-04-22T14:35:19.186Z,19.6
2023-04-22T14:37:31.803Z,19.6
2023-04-22T14:39:18.661Z,19.6
2023-04-22T14:41:23.442Z,19.6
2023-04-22T14:43:19.153Z,19.6
2023-04-22T14:45:18.682Z,19.6
2023-04-22T14:47:25.673Z,19.6
2023-04-22T14:49:19.214Z,19.6
2023-04-22T14:55:22.962Z,19.6
2023-04-22T14:57:19.057Z,19.6
2023-04-22T14:59:27.621Z,19.5
2023-04-22T15:01:19.181Z,19.6
2023-04-22T15:03:18.795Z,19.6
2023-04-22T15:05:28.087Z,19.5
2023-04-22T15:07:19.924Z,19.4
2023-04-22T15:09:19.059Z,19.4
2023-04-22T15:11:18.768Z,19.3
2023-04-22T15:13:19.227Z,19.2
2023-04-22T15:15:25.805Z,19.2
2023-04-22T15:17:18.726Z,19.2
2023-04-22T15:19:19.267Z,19.2
2023-04-22T15:21:30.633Z,19.2
2023-04-22T15:23:18.752Z,19.1
2023-04-22T15:25:22.687Z,19.1
2023-04-22T15:29:27.715Z,19.2
2023-04-22T15:31:19.294Z,19.2
2023-04-22T15:33:18.781Z,19.3
2023-04-22T15:35:18.801Z,19.3
2023-04-22T15:37:31.854Z,19.5
2023-04-22T15:39:18.821Z,19.4
2023-04-22T15:41:28.673Z,19.3
2023-04-22T15:43:19.313Z,19.3
2023-04-22T15:45:26.980Z,19.3
2023-04-22T15:47:19.341Z,19.3
2023-04-22T15:49:32.346Z,19.3
2023-04-22T15:51:18.814Z,19.2
2023-04-22T15:53:18.835Z,19.1
2023-04-22T15:55:19.460Z,19.1
2023-04-22T15:57:30.744Z,19.1
2023-04-22T15:59:18.851Z,19.1
2023-04-22T16:01:20.266Z,19.1
2023-04-22T16:03:18.936Z,19
2023-04-22T16:05:18.870Z,19
2023-04-22T16:07:19.377Z,19
2023-04-22T16:09:18.927Z,18.9
2023-04-22T16:11:27.749Z,19
2023-04-22T16:13:19.391Z,19
2023-04-22T16:15:22.199Z,19
2023-04-22T16:17:19.026Z,19
2023-04-22T16:19:19.395Z,18.9
2023-04-22T16:21:27.844Z,18.9
2023-04-22T16:23:18.912Z,18.8
2023-04-22T16:25:19.526Z,18.8
2023-04-22T16:27:22.950Z,18.8
2023-04-22T16:29:19.641Z,18.8
2023-04-22T16:31:19.451Z,18.8
2023-04-22T16:33:18.962Z,18.7
2023-04-22T16:35:26.255Z,18.7
2023-04-22T16:37:19.471Z,18.7
2023-04-22T16:39:19.351Z,18.7
2023-04-22T16:41:19.361Z,18.7
2023-04-22T16:43:19.513Z,18.7
2023-04-22T16:45:19.002Z,18.7
2023-04-22T16:47:30.335Z,18.7
2023-04-22T16:49:19.616Z,18.7
2023-04-22T16:51:25.962Z,18.7
2023-04-22T16:53:19.063Z,18.7
2023-04-22T16:55:20.064Z,18.7
2023-04-22T16:57:19.103Z,18.6
2023-04-22T16:59:24.173Z,18.6
2023-04-22T17:01:19.569Z,18.6
2023-04-22T17:03:24.022Z,18.6
2023-04-22T17:05:19.468Z,18.6
2023-04-22T17:07:19.952Z,18.6
2023-04-22T17:09:19.141Z,18.6
2023-04-22T17:11:19.515Z,18.6
2023-04-22T17:13:19.687Z,18.6
2023-04-22T17:15:19.203Z,18.6
2023-04-22T17:17:19.582Z,18.5
2023-04-22T17:19:19.696Z,18.5
2023-04-22T17:21:19.567Z,18.5
2023-04-22T17:23:19.195Z,18.5
2023-04-22T17:25:19.763Z,18.4
2023-04-22T17:29:19.235Z,18.4
2023-04-22T17:33:19.621Z,18.3
2023-04-22T17:35:19.629Z,18.3
2023-04-22T17:37:19.819Z,18.3
2023-04-22T17:39:19.298Z,18.3
2023-04-22T17:41:23.794Z,18.3
2023-04-22T17:43:19.824Z,18.3
2023-04-22T17:45:19.331Z,18.3
2023-04-22T17:47:19.429Z,18.3
2023-04-22T17:49:19.841Z,18.2
2023-04-22T17:51:19.390Z,18.2
2023-04-22T17:53:19.399Z,18.2
2023-04-22T17:55:19.919Z,18.2
2023-04-22T17:57:20.164Z,18.2
2023-04-22T17:59:19.467Z,18.1
2023-04-22T18:01:19.997Z,18.1
2023-04-22T18:03:20.026Z,18.1
2023-04-22T18:05:19.516Z,18.1
2023-04-22T18:07:20.894Z,18.1
2023-04-22T18:09:19.564Z,18.1
2023-04-22T18:11:19.514Z,18.1
2023-04-22T18:13:20.505Z,18.1
2023-04-22T18:17:19.973Z,18
2023-04-22T18:19:20.122Z,18
2023-04-22T18:21:20.034Z,18
2023-04-22T18:23:19.608Z,18
2023-04-22T18:25:20.169Z,18
2023-04-22T18:27:20.041Z,18
2023-04-22T18:29:19.891Z,18
2023-04-22T18:31:20.132Z,18
2023-04-22T18:33:20.058Z,18
2023-04-22T18:35:19.672Z,18
2023-04-22T18:37:20.709Z,17.9
2023-04-22T18:41:19.794Z,17.9
2023-04-22T18:43:21.267Z,17.9
2023-04-22T18:45:19.734Z,18
2023-04-22T18:47:19.829Z,18
2023-04-22T18:49:20.319Z,18
2023-04-22T18:51:20.119Z,18
2023-04-22T18:53:20.543Z,18
2023-04-22T18:55:20.456Z,17.9
2023-04-22T18:59:19.846Z,17.9
2023-04-22T19:01:21.365Z,17.8
2023-04-22T19:03:20.075Z,17.8
2023-04-22T19:05:19.865Z,17.7
2023-04-22T19:07:20.501Z,17.7
2023-04-22T19:09:20.470Z,17.6
2023-04-22T19:11:19.939Z,17.5
2023-04-22T19:13:29.024Z,17.4
2023-04-22T19:15:20.460Z,17.1
2023-04-22T19:17:20.021Z,17
2023-04-22T19:21:21.270Z,16.9
2023-04-22T19:23:19.984Z,16.8
2023-04-22T19:25:20.732Z,16.8
2023-04-22T19:27:20.552Z,16.7
2023-04-22T19:29:20.073Z,16.8
2023-04-22T19:31:20.904Z,16.7
2023-04-22T19:33:20.140Z,16.8
2023-04-22T19:35:20.154Z,16.7
2023-04-22T19:37:20.976Z,16.6
2023-04-22T19:39:20.181Z,16.5
2023-04-22T19:41:20.739Z,16.4
2023-04-22T19:43:20.666Z,16.3
2023-04-22T19:45:20.197Z,16.2
2023-04-22T19:47:20.230Z,16.2
2023-04-22T19:49:21.395Z,16.2
2023-04-22T19:51:20.277Z,16.2
2023-04-22T19:53:21.085Z,16.1
2023-04-22T19:55:21.306Z,16.1
2023-04-22T19:57:20.341Z,16.1
2023-04-22T19:59:20.603Z,16.1
2023-04-22T20:03:20.486Z,15.9
2023-04-22T20:05:20.622Z,16
2023-04-22T20:07:34.482Z,16
2023-04-22T20:11:23.756Z,16
2023-04-22T20:13:21.184Z,16
2023-04-22T20:15:20.943Z,16
2023-04-22T20:17:32.854Z,16
2023-04-22T20:19:21.660Z,16
2023-04-22T20:21:26.334Z,16
2023-04-22T20:23:20.590Z,15.9
2023-04-22T20:25:21.783Z,15.8
2023-04-22T20:29:21.149Z,15.7
2023-04-22T20:31:22.219Z,15.6
2023-04-22T20:33:22.579Z,15.6
2023-04-22T20:35:20.766Z,15.6
2023-04-22T20:39:21.235Z,15.5
2023-04-22T20:41:23.784Z,15.5
2023-04-22T20:45:20.812Z,15.5
2023-04-22T20:47:22.181Z,15.5
2023-04-22T20:49:22.782Z,15.4
2023-04-22T20:51:21.491Z,15.3
2023-04-22T20:53:21.009Z,15.3
2023-04-22T20:57:21.877Z,15.2
2023-04-22T20:59:33.876Z,15.3
2023-04-22T21:03:22.235Z,15.3
2023-04-22T21:05:24.279Z,15.4
2023-04-22T21:09:21.751Z,15.4
2023-04-22T21:11:21.305Z,15.4
2023-04-22T21:13:32.405Z,15.3
2023-04-22T21:15:22.015Z,15.3
2023-04-22T21:17:24.207Z,15.4
2023-04-22T21:19:24.375Z,15.4
2023-04-22T21:21:21.949Z,15.3
2023-04-22T21:23:21.400Z,15.2
2023-04-22T21:25:21.473Z,15.3
2023-04-22T21:27:22.340Z,15.2
2023-04-22T21:29:24.553Z,15.3
2023-04-22T21:31:21.805Z,15.3
2023-04-22T21:33:22.147Z,15.2
2023-04-22T21:35:23.828Z,15.2
2023-04-22T21:37:21.795Z,15.1
2023-04-22T21:39:22.419Z,15.2
2023-04-22T21:41:24.538Z,15.2
2023-04-22T21:43:21.562Z,15.2
2023-04-22T21:45:22.003Z,15.1
2023-04-22T21:47:21.605Z,15.2
2023-04-22T21:49:27.832Z,15.2
2023-04-22T21:51:22.841Z,15.1
2023-04-22T21:53:21.671Z,15.1
2023-04-22T21:55:21.788Z,15.1
2023-04-22T21:57:22.179Z,15
2023-04-22T21:59:21.847Z,14.9
2023-04-22T22:01:21.906Z,14.9
2023-04-22T22:03:23.987Z,14.9
2023-04-22T22:05:22.920Z,14.9
2023-04-22T22:07:21.999Z,14.9
2023-04-22T22:09:24.975Z,15
2023-04-22T22:13:23.309Z,14.9
2023-04-22T22:15:23.163Z,14.9
2023-04-22T22:17:22.136Z,14.7
2023-04-22T22:19:25.710Z,14.7
2023-04-22T22:21:22.802Z,14.6
2023-04-22T22:23:22.338Z,14.7
2023-04-22T22:25:28.569Z,14.7
2023-04-22T22:29:22.254Z,14.7
2023-04-22T22:31:22.384Z,14.8
2023-04-22T22:33:22.891Z,14.7
2023-04-22T22:35:22.874Z,14.6
2023-04-22T22:37:27.223Z,14.6
2023-04-22T22:39:23.697Z,14.7
2023-04-22T22:41:23.249Z,14.8
2023-04-22T22:43:22.953Z,14.8
2023-04-22T22:45:23.453Z,14.7
2023-04-22T22:47:23.018Z,14.7
2023-04-22T22:49:26.407Z,14.6
2023-04-22T22:51:23.463Z,14.7
2023-04-22T22:53:24.714Z,14.6
2023-04-22T22:55:22.980Z,14.7
2023-04-22T22:57:23.811Z,14.5
2023-04-22T22:59:23.092Z,14.4
2023-04-22T23:01:23.104Z,14.5
2023-04-22T23:03:24.214Z,14.4
2023-04-22T23:05:26.293Z,14.4
2023-04-22T23:07:23.000Z,14.4
2023-04-22T23:09:32.385Z,14.3
2023-04-22T23:11:22.972Z,14.2
2023-04-22T23:13:26.281Z,14.3
2023-04-22T23:15:23.440Z,14.2
2023-04-22T23:17:28.374Z,14.2
2023-04-22T23:19:22.993Z,14.1
2023-04-22T23:21:35.533Z,14.1
2023-04-22T23:23:23.024Z,14
2023-04-22T23:25:23.336Z,14.1
2023-04-22T23:27:23.992Z,14.1
2023-04-22T23:29:23.458Z,14.1
2023-04-22T23:31:23.556Z,14.1
2023-04-22T23:33:23.720Z,14.1
2023-04-22T23:35:23.187Z,14.1
2023-04-22T23:37:23.907Z,14
2023-04-22T23:39:24.133Z,14
2023-04-22T23:41:23.665Z,14
2023-04-22T23:43:23.628Z,14
2023-04-22T23:45:23.725Z,13.9
2023-04-22T23:47:23.310Z,13.9
2023-04-22T23:49:23.686Z,13.9
2023-04-22T23:51:23.803Z,13.9
2023-04-22T23:53:32.311Z,13.9
2023-04-22T23:55:23.407Z,13.9
2023-04-22T23:57:35.785Z,13.9
2023-04-22T23:59:23.484Z,13.9
